createdAt,value
2022-09-30T00:09:29.032Z,8.30
2022-09-30T00:19:33.631Z,8.40
2022-09-30T00:29:36.864Z,8.40
2022-09-30T00:39:41.470Z,8.40
2022-09-30T00:49:44.723Z,8.40
2022-09-30T00:59:52.343Z,8.40
2022-09-30T01:09:55.618Z,8.50
2022-09-30T01:20:43.222Z,8.50
2022-09-30T01:31:09.770Z,8.50
2022-09-30T01:41:23.457Z,8.40
2022-09-30T01:51:38.555Z,8.40
2022-09-30T02:01:49.194Z,8.40
2022-09-30T02:11:57.148Z,8.50
2022-09-30T02:22:11.777Z,8.50
2022-09-30T02:32:22.217Z,8.50
2022-09-30T02:42:28.697Z,8.50
2022-09-30T02:52:48.940Z,8.50
2022-09-30T03:03:00.611Z,8.40
2022-09-30T03:13:41.072Z,8.50
2022-09-30T03:24:33.334Z,8.70
2022-09-30T03:34:55.480Z,8.80
2022-09-30T03:45:08.357Z,8.80
2022-09-30T03:55:13.113Z,8.80
2022-09-30T04:05:16.578Z,8.90
2022-09-30T04:15:21.319Z,8.90
2022-09-30T04:25:24.800Z,8.90
2022-09-30T04:35:30.205Z,9.00
2022-09-30T04:45:33.569Z,9.00
2022-09-30T04:55:38.176Z,9.00
2022-09-30T05:05:45.909Z,9.10
2022-09-30T05:15:51.972Z,9.10
2022-09-30T05:25:55.793Z,9.20
2022-09-30T05:36:03.785Z,9.30
2022-09-30T05:46:07.477Z,9.40
2022-09-30T05:56:13.405Z,9.60
2022-09-30T06:06:17.244Z,9.70
2022-09-30T06:16:22.023Z,9.90
2022-09-30T06:26:25.366Z,10.20
2022-09-30T06:36:30.210Z,10.20
2022-09-30T06:46:33.594Z,10.20
2022-09-30T06:56:38.376Z,10.30
2022-09-30T07:06:42.071Z,10.50
2022-09-30T07:16:46.722Z,10.80
2022-09-30T07:26:50.166Z,10.80
2022-09-30T07:36:54.777Z,10.60
2022-09-30T07:46:58.711Z,10.50
2022-09-30T07:57:10.222Z,10.60
2022-09-30T08:07:16.033Z,10.90
2022-09-30T08:17:20.656Z,11.10
2022-09-30T08:27:23.969Z,11.10
2022-09-30T08:37:28.706Z,11.20
2022-09-30T08:47:44.962Z,11.30
2022-09-30T08:57:49.758Z,11.40
2022-09-30T09:08:03.678Z,11.20
2022-09-30T09:18:35.367Z,11.30
2022-09-30T09:28:49.126Z,11.40
2022-09-30T09:39:12.481Z,11.70
2022-09-30T09:49:35.036Z,11.60
2022-09-30T09:59:55.702Z,11.40
2022-09-30T10:10:23.400Z,11.60
2022-09-30T10:20:34.616Z,12.00
2022-09-30T10:30:44.037Z,12.40
2022-09-30T10:40:51.662Z,12.20
2022-09-30T10:50:56.965Z,11.90
2022-09-30T11:01:18.798Z,11.90
2022-09-30T11:11:27.299Z,11.90
2022-09-30T11:21:43.455Z,11.90
2022-09-30T11:31:57.656Z,12.20
2022-09-30T11:42:09.831Z,12.30
2022-09-30T11:52:22.015Z,12.60
2022-09-30T12:02:37.514Z,13.10
2022-09-30T12:12:41.014Z,13.30
2022-09-30T12:22:49.092Z,12.90
2022-09-30T12:33:43.396Z,12.70
2022-09-30T12:44:41.474Z,12.80
2022-09-30T12:54:49.394Z,13.10
2022-09-30T13:04:54.080Z,13.50
2022-09-30T13:15:41.638Z,13.50
2022-09-30T13:25:56.203Z,13.20
2022-09-30T13:36:10.285Z,12.90
2022-09-30T13:46:26.846Z,12.90
2022-09-30T13:56:35.145Z,12.90
2022-09-30T14:06:51.663Z,14.00
2022-09-30T14:17:28.029Z,15.00
2022-09-30T14:27:53.339Z,14.80
2022-09-30T14:38:01.030Z,13.70
2022-09-30T14:48:09.779Z,13.10
2022-09-30T14:58:28.792Z,12.60
2022-09-30T15:08:33.737Z,12.50
2022-09-30T15:18:46.189Z,12.20
2022-09-30T15:28:51.077Z,12.00
2022-09-30T15:38:55.189Z,12.10
2022-09-30T15:49:02.280Z,12.20
2022-09-30T15:59:08.869Z,12.00
2022-09-30T16:09:34.583Z,11.80
2022-09-30T16:19:44.349Z,11.70
2022-09-30T16:29:49.250Z,11.50
2022-09-30T16:39:52.565Z,11.40
2022-09-30T16:49:57.715Z,11.30
2022-09-30T17:00:01.449Z,11.30
2022-09-30T17:10:07.956Z,11.20
2022-09-30T17:20:13.661Z,11.00
2022-09-30T17:30:21.519Z,10.90
2022-09-30T17:40:43.399Z,10.90
2022-09-30T17:50:51.160Z,11.00
2022-09-30T18:00:57.937Z,10.80
2022-09-30T18:11:03.012Z,10.80
2022-09-30T18:21:07.340Z,10.70
2022-09-30T18:31:27.301Z,10.70
2022-09-30T18:41:34.513Z,10.70
2022-09-30T18:51:40.450Z,10.80
2022-09-30T19:01:45.384Z,10.80
2022-09-30T19:11:52.898Z,10.80
2022-09-30T19:22:00.337Z,10.80
2022-09-30T19:32:09.643Z,10.80
2022-09-30T19:42:14.444Z,10.80
2022-09-30T19:52:22.350Z,10.80
2022-09-30T20:02:26.773Z,10.80
2022-09-30T20:12:34.236Z,10.80
2022-09-30T20:22:37.917Z,10.80
2022-09-30T20:32:43.053Z,10.80
2022-09-30T20:42:46.396Z,10.70
2022-09-30T20:52:51.040Z,10.70
2022-09-30T21:02:55.108Z,10.60
2022-09-30T21:13:01.308Z,10.60
2022-09-30T21:23:04.738Z,10.50
2022-09-30T21:33:09.337Z,10.50
2022-09-30T21:43:12.611Z,10.50
2022-09-30T21:53:17.545Z,10.50
2022-09-30T22:03:21.324Z,10.50
2022-09-30T22:13:25.912Z,10.40
2022-09-30T22:23:29.117Z,10.30
2022-09-30T22:33:51.394Z,10.10
2022-09-30T22:43:54.597Z,10.00
2022-09-30T22:54:01.282Z,9.80
2022-09-30T23:04:04.622Z,9.70
2022-09-30T23:14:09.465Z,9.60
2022-09-30T23:24:12.996Z,9.50
2022-09-30T23:34:18.424Z,9.50
2022-09-30T23:44:21.653Z,9.50
2022-09-30T23:54:26.218Z,9.60
